sensor_id;sensor_type;location;lat;lon;timestamp;P1;durP1;ratioP1;P2;durP2;ratioP2
72125;SDS011;59999;51.676;22.650;2024-03-07T00:02:17;32.08;;;11.70;;
72125;SDS011;59999;51.676;22.650;2024-03-07T00:04:43;32.33;;;10.80;;
72125;SDS011;59999;51.676;22.650;2024-03-07T00:07:09;29.92;;;12.38;;
72125;SDS011;59999;51.676;22.650;2024-03-07T00:09:35;30.38;;;12.45;;
72125;SDS011;59999;51.676;22.650;2024-03-07T00:12:04;34.97;;;12.25;;
72125;SDS011;59999;51.676;22.650;2024-03-07T00:14:33;29.60;;;11.65;;
72125;SDS011;59999;51.676;22.650;2024-03-07T00:17:01;33.92;;;12.73;;
72125;SDS011;59999;51.676;22.650;2024-03-07T00:19:28;30.75;;;12.15;;
72125;SDS011;59999;51.676;22.650;2024-03-07T00:21:55;34.63;;;11.87;;
72125;SDS011;59999;51.676;22.650;2024-03-07T00:24:22;33.33;;;11.82;;
72125;SDS011;59999;51.676;22.650;2024-03-07T00:26:49;30.45;;;10.32;;
72125;SDS011;59999;51.676;22.650;2024-03-07T00:29:16;28.02;;;10.15;;
72125;SDS011;59999;51.676;22.650;2024-03-07T00:31:46;29.02;;;11.13;;
72125;SDS011;59999;51.676;22.650;2024-03-07T00:34:12;31.37;;;11.87;;
72125;SDS011;59999;51.676;22.650;2024-03-07T00:36:42;27.70;;;11.43;;
72125;SDS011;59999;51.676;22.650;2024-03-07T00:39:08;32.88;;;11.98;;
72125;SDS011;59999;51.676;22.650;2024-03-07T00:41:40;29.30;;;11.23;;
72125;SDS011;59999;51.676;22.650;2024-03-07T00:44:07;29.83;;;11.73;;
72125;SDS011;59999;51.676;22.650;2024-03-07T00:46:37;26.03;;;10.67;;
72125;SDS011;59999;51.676;22.650;2024-03-07T00:49:03;26.05;;;9.88;;
72125;SDS011;59999;51.676;22.650;2024-03-07T00:51:30;33.67;;;11.38;;
72125;SDS011;59999;51.676;22.650;2024-03-07T00:53:56;33.13;;;10.38;;
72125;SDS011;59999;51.676;22.650;2024-03-07T00:56:23;32.57;;;12.50;;
72125;SDS011;59999;51.676;22.650;2024-03-07T00:58:49;27.90;;;9.98;;
72125;SDS011;59999;51.676;22.650;2024-03-07T01:01:18;34.20;;;13.15;;
72125;SDS011;59999;51.676;22.650;2024-03-07T01:03:47;31.02;;;10.88;;
72125;SDS011;59999;51.676;22.650;2024-03-07T01:06:13;24.97;;;9.60;;
72125;SDS011;59999;51.676;22.650;2024-03-07T01:08:38;25.65;;;9.20;;
72125;SDS011;59999;51.676;22.650;2024-03-07T01:11:05;30.15;;;9.98;;
72125;SDS011;59999;51.676;22.650;2024-03-07T01:13:36;27.48;;;9.55;;
72125;SDS011;59999;51.676;22.650;2024-03-07T01:16:02;30.03;;;9.10;;
72125;SDS011;59999;51.676;22.650;2024-03-07T01:18:28;29.13;;;9.00;;
72125;SDS011;59999;51.676;22.650;2024-03-07T01:20:54;25.58;;;8.85;;
72125;SDS011;59999;51.676;22.650;2024-03-07T01:23:20;25.47;;;8.63;;
72125;SDS011;59999;51.676;22.650;2024-03-07T01:25:46;27.08;;;8.93;;
72125;SDS011;59999;51.676;22.650;2024-03-07T01:28:12;23.40;;;9.20;;
72125;SDS011;59999;51.676;22.650;2024-03-07T01:30:39;30.30;;;9.63;;
72125;SDS011;59999;51.676;22.650;2024-03-07T01:33:05;27.02;;;8.82;;
72125;SDS011;59999;51.676;22.650;2024-03-07T01:35:31;21.60;;;7.57;;
72125;SDS011;59999;51.676;22.650;2024-03-07T01:37:57;25.53;;;9.17;;
72125;SDS011;59999;51.676;22.650;2024-03-07T01:40:23;23.98;;;8.80;;
72125;SDS011;59999;51.676;22.650;2024-03-07T01:42:49;28.13;;;11.17;;
72125;SDS011;59999;51.676;22.650;2024-03-07T01:45:16;23.70;;;9.57;;
72125;SDS011;59999;51.676;22.650;2024-03-07T01:47:44;25.35;;;9.85;;
72125;SDS011;59999;51.676;22.650;2024-03-07T01:50:10;29.80;;;10.50;;
72125;SDS011;59999;51.676;22.650;2024-03-07T01:52:39;23.90;;;9.30;;
72125;SDS011;59999;51.676;22.650;2024-03-07T01:55:06;29.00;;;10.90;;
72125;SDS011;59999;51.676;22.650;2024-03-07T01:57:33;23.70;;;8.02;;
72125;SDS011;59999;51.676;22.650;2024-03-07T02:00:00;28.30;;;11.05;;
72125;SDS011;59999;51.676;22.650;2024-03-07T02:02:29;26.95;;;11.43;;
72125;SDS011;59999;51.676;22.650;2024-03-07T02:04:55;23.93;;;9.13;;
72125;SDS011;59999;51.676;22.650;2024-03-07T02:07:20;24.63;;;10.23;;
72125;SDS011;59999;51.676;22.650;2024-03-07T02:09:46;27.90;;;10.70;;
72125;SDS011;59999;51.676;22.650;2024-03-07T02:12:12;23.42;;;8.82;;
72125;SDS011;59999;51.676;22.650;2024-03-07T02:14:38;27.00;;;10.83;;
72125;SDS011;59999;51.676;22.650;2024-03-07T02:17:04;27.75;;;8.98;;
72125;SDS011;59999;51.676;22.650;2024-03-07T02:19:29;33.40;;;12.00;;
72125;SDS011;59999;51.676;22.650;2024-03-07T02:21:57;23.70;;;9.60;;
72125;SDS011;59999;51.676;22.650;2024-03-07T02:24:24;29.85;;;11.15;;
72125;SDS011;59999;51.676;22.650;2024-03-07T02:26:50;26.33;;;10.40;;
72125;SDS011;59999;51.676;22.650;2024-03-07T02:29:16;32.92;;;10.75;;
72125;SDS011;59999;51.676;22.650;2024-03-07T02:31:41;31.00;;;10.18;;
72125;SDS011;59999;51.676;22.650;2024-03-07T02:34:07;22.83;;;9.38;;
72125;SDS011;59999;51.676;22.650;2024-03-07T02:36:33;24.40;;;9.38;;
72125;SDS011;59999;51.676;22.650;2024-03-07T02:38:59;23.95;;;8.50;;
72125;SDS011;59999;51.676;22.650;2024-03-07T02:41:25;26.90;;;9.40;;
72125;SDS011;59999;51.676;22.650;2024-03-07T02:43:52;27.70;;;8.73;;
72125;SDS011;59999;51.676;22.650;2024-03-07T02:46:18;23.70;;;9.07;;
72125;SDS011;59999;51.676;22.650;2024-03-07T02:48:45;23.37;;;8.40;;
72125;SDS011;59999;51.676;22.650;2024-03-07T02:51:10;23.50;;;8.00;;
72125;SDS011;59999;51.676;22.650;2024-03-07T02:53:37;25.33;;;9.52;;
72125;SDS011;59999;51.676;22.650;2024-03-07T02:56:05;22.50;;;8.55;;
72125;SDS011;59999;51.676;22.650;2024-03-07T02:58:34;25.60;;;9.27;;
72125;SDS011;59999;51.676;22.650;2024-03-07T03:01:00;24.55;;;8.85;;
72125;SDS011;59999;51.676;22.650;2024-03-07T03:03:26;22.38;;;8.63;;
72125;SDS011;59999;51.676;22.650;2024-03-07T03:05:52;27.77;;;8.65;;
72125;SDS011;59999;51.676;22.650;2024-03-07T03:08:18;26.33;;;9.07;;
72125;SDS011;59999;51.676;22.650;2024-03-07T03:10:44;23.02;;;8.65;;
72125;SDS011;59999;51.676;22.650;2024-03-07T03:13:10;27.02;;;8.85;;
72125;SDS011;59999;51.676;22.650;2024-03-07T03:15:36;26.05;;;10.98;;
72125;SDS011;59999;51.676;22.650;2024-03-07T03:18:03;25.42;;;10.90;;
72125;SDS011;59999;51.676;22.650;2024-03-07T03:20:31;24.47;;;9.67;;
72125;SDS011;59999;51.676;22.650;2024-03-07T03:23:00;24.27;;;9.93;;
72125;SDS011;59999;51.676;22.650;2024-03-07T03:25:28;27.23;;;10.13;;
72125;SDS011;59999;51.676;22.650;2024-03-07T03:27:54;24.23;;;9.48;;
72125;SDS011;59999;51.676;22.650;2024-03-07T03:30:19;23.27;;;9.23;;
72125;SDS011;59999;51.676;22.650;2024-03-07T03:32:47;27.55;;;9.20;;
72125;SDS011;59999;51.676;22.650;2024-03-07T03:35:14;22.20;;;7.82;;
72125;SDS011;59999;51.676;22.650;2024-03-07T03:37:44;20.63;;;7.63;;
72125;SDS011;59999;51.676;22.650;2024-03-07T03:40:10;20.93;;;8.13;;
72125;SDS011;59999;51.676;22.650;2024-03-07T03:42:37;17.05;;;6.90;;
72125;SDS011;59999;51.676;22.650;2024-03-07T03:45:03;23.48;;;7.47;;
72125;SDS011;59999;51.676;22.650;2024-03-07T03:47:35;18.45;;;7.10;;
72125;SDS011;59999;51.676;22.650;2024-03-07T03:50:05;20.08;;;6.82;;
72125;SDS011;59999;51.676;22.650;2024-03-07T03:52:32;19.37;;;6.80;;
72125;SDS011;59999;51.676;22.650;2024-03-07T03:55:00;19.10;;;6.63;;
72125;SDS011;59999;51.676;22.650;2024-03-07T03:57:27;21.17;;;7.13;;
72125;SDS011;59999;51.676;22.650;2024-03-07T03:59:53;17.75;;;6.55;;
72125;SDS011;59999;51.676;22.650;2024-03-07T04:02:20;18.98;;;6.78;;
72125;SDS011;59999;51.676;22.650;2024-03-07T04:04:47;19.67;;;6.13;;
72125;SDS011;59999;51.676;22.650;2024-03-07T04:07:15;16.70;;;6.47;;
72125;SDS011;59999;51.676;22.650;2024-03-07T04:09:41;20.85;;;7.07;;
72125;SDS011;59999;51.676;22.650;2024-03-07T04:12:08;19.23;;;6.50;;
72125;SDS011;59999;51.676;22.650;2024-03-07T04:14:40;17.92;;;6.60;;
72125;SDS011;59999;51.676;22.650;2024-03-07T04:17:07;17.17;;;6.20;;
72125;SDS011;59999;51.676;22.650;2024-03-07T04:19:38;15.88;;;5.45;;
72125;SDS011;59999;51.676;22.650;2024-03-07T04:22:06;18.00;;;5.90;;
72125;SDS011;59999;51.676;22.650;2024-03-07T04:24:33;17.13;;;6.10;;
72125;SDS011;59999;51.676;22.650;2024-03-07T04:27:04;19.77;;;6.40;;
72125;SDS011;59999;51.676;22.650;2024-03-07T04:29:31;17.20;;;6.17;;
72125;SDS011;59999;51.676;22.650;2024-03-07T04:31:58;18.23;;;6.72;;
72125;SDS011;59999;51.676;22.650;2024-03-07T04:34:24;16.55;;;5.82;;
72125;SDS011;59999;51.676;22.650;2024-03-07T04:36:50;21.30;;;7.07;;
72125;SDS011;59999;51.676;22.650;2024-03-07T04:39:16;18.42;;;6.65;;
72125;SDS011;59999;51.676;22.650;2024-03-07T04:41:53;17.50;;;6.00;;
72125;SDS011;59999;51.676;22.650;2024-03-07T04:44:20;15.80;;;6.38;;
72125;SDS011;59999;51.676;22.650;2024-03-07T04:46:48;17.95;;;6.53;;
72125;SDS011;59999;51.676;22.650;2024-03-07T04:49:15;20.77;;;7.70;;
72125;SDS011;59999;51.676;22.650;2024-03-07T04:51:41;16.60;;;5.82;;
72125;SDS011;59999;51.676;22.650;2024-03-07T04:54:07;19.77;;;6.37;;
72125;SDS011;59999;51.676;22.650;2024-03-07T04:56:32;18.88;;;6.32;;
72125;SDS011;59999;51.676;22.650;2024-03-07T04:58:58;20.20;;;6.70;;
72125;SDS011;59999;51.676;22.650;2024-03-07T05:01:24;18.98;;;6.03;;
72125;SDS011;59999;51.676;22.650;2024-03-07T05:03:50;21.05;;;6.47;;
72125;SDS011;59999;51.676;22.650;2024-03-07T05:06:18;17.77;;;6.68;;
72125;SDS011;59999;51.676;22.650;2024-03-07T05:08:43;17.80;;;5.65;;
72125;SDS011;59999;51.676;22.650;2024-03-07T05:11:09;18.77;;;6.37;;
72125;SDS011;59999;51.676;22.650;2024-03-07T05:13:35;18.95;;;6.15;;
72125;SDS011;59999;51.676;22.650;2024-03-07T05:16:02;18.00;;;6.15;;
72125;SDS011;59999;51.676;22.650;2024-03-07T05:18:28;15.90;;;5.93;;
72125;SDS011;59999;51.676;22.650;2024-03-07T05:20:54;16.00;;;5.10;;
72125;SDS011;59999;51.676;22.650;2024-03-07T05:23:20;18.25;;;6.38;;
72125;SDS011;59999;51.676;22.650;2024-03-07T05:25:46;15.30;;;5.43;;
72125;SDS011;59999;51.676;22.650;2024-03-07T05:28:12;17.33;;;6.05;;
72125;SDS011;59999;51.676;22.650;2024-03-07T05:30:38;16.63;;;5.68;;
72125;SDS011;59999;51.676;22.650;2024-03-07T05:33:04;16.07;;;5.53;;
72125;SDS011;59999;51.676;22.650;2024-03-07T05:35:30;15.85;;;5.22;;
72125;SDS011;59999;51.676;22.650;2024-03-07T05:37:56;14.90;;;6.15;;
72125;SDS011;59999;51.676;22.650;2024-03-07T05:40:23;17.67;;;6.55;;
72125;SDS011;59999;51.676;22.650;2024-03-07T05:42:49;16.43;;;5.93;;
72125;SDS011;59999;51.676;22.650;2024-03-07T05:45:15;15.63;;;5.35;;
72125;SDS011;59999;51.676;22.650;2024-03-07T05:47:43;19.98;;;5.35;;
72125;SDS011;59999;51.676;22.650;2024-03-07T05:50:09;15.57;;;5.80;;
72125;SDS011;59999;51.676;22.650;2024-03-07T05:52:35;16.88;;;5.65;;
72125;SDS011;59999;51.676;22.650;2024-03-07T05:55:02;15.60;;;6.03;;
72125;SDS011;59999;51.676;22.650;2024-03-07T05:57:31;15.57;;;6.45;;
72125;SDS011;59999;51.676;22.650;2024-03-07T05:59:57;16.17;;;5.93;;
72125;SDS011;59999;51.676;22.650;2024-03-07T06:02:24;15.70;;;5.33;;
72125;SDS011;59999;51.676;22.650;2024-03-07T06:04:50;16.85;;;6.20;;
72125;SDS011;59999;51.676;22.650;2024-03-07T06:07:15;17.23;;;5.88;;
72125;SDS011;59999;51.676;22.650;2024-03-07T06:09:41;16.70;;;5.80;;
72125;SDS011;59999;51.676;22.650;2024-03-07T06:12:08;14.98;;;5.53;;
72125;SDS011;59999;51.676;22.650;2024-03-07T06:14:34;13.45;;;5.13;;
72125;SDS011;59999;51.676;22.650;2024-03-07T06:17:00;14.90;;;4.37;;
72125;SDS011;59999;51.676;22.650;2024-03-07T06:19:26;17.85;;;5.70;;
72125;SDS011;59999;51.676;22.650;2024-03-07T06:21:52;14.90;;;5.57;;
72125;SDS011;59999;51.676;22.650;2024-03-07T06:24:19;16.17;;;6.15;;
72125;SDS011;59999;51.676;22.650;2024-03-07T06:26:47;17.80;;;6.28;;
72125;SDS011;59999;51.676;22.650;2024-03-07T06:29:25;16.92;;;6.95;;
72125;SDS011;59999;51.676;22.650;2024-03-07T06:31:52;15.45;;;5.90;;
72125;SDS011;59999;51.676;22.650;2024-03-07T06:34:20;16.97;;;6.90;;
72125;SDS011;59999;51.676;22.650;2024-03-07T06:36:46;20.08;;;7.93;;
72125;SDS011;59999;51.676;22.650;2024-03-07T06:39:11;17.58;;;5.95;;
72125;SDS011;59999;51.676;22.650;2024-03-07T06:41:38;19.98;;;7.68;;
72125;SDS011;59999;51.676;22.650;2024-03-07T06:44:04;16.52;;;6.45;;
72125;SDS011;59999;51.676;22.650;2024-03-07T06:46:30;16.50;;;6.63;;
72125;SDS011;59999;51.676;22.650;2024-03-07T06:49:00;23.02;;;8.25;;
72125;SDS011;59999;51.676;22.650;2024-03-07T06:51:25;19.17;;;7.47;;
72125;SDS011;59999;51.676;22.650;2024-03-07T06:53:51;18.98;;;6.80;;
72125;SDS011;59999;51.676;22.650;2024-03-07T06:56:17;17.93;;;7.30;;
72125;SDS011;59999;51.676;22.650;2024-03-07T06:58:43;17.42;;;7.10;;
72125;SDS011;59999;51.676;22.650;2024-03-07T07:01:13;18.63;;;6.25;;
72125;SDS011;59999;51.676;22.650;2024-03-07T07:03:41;14.40;;;6.10;;
72125;SDS011;59999;51.676;22.650;2024-03-07T07:06:10;15.37;;;6.03;;
72125;SDS011;59999;51.676;22.650;2024-03-07T07:08:36;19.27;;;6.18;;
72125;SDS011;59999;51.676;22.650;2024-03-07T07:11:02;14.20;;;5.68;;
72125;SDS011;59999;51.676;22.650;2024-03-07T07:13:29;16.00;;;5.93;;
72125;SDS011;59999;51.676;22.650;2024-03-07T07:15:56;14.32;;;5.35;;
72125;SDS011;59999;51.676;22.650;2024-03-07T07:18:22;16.47;;;5.30;;
72125;SDS011;59999;51.676;22.650;2024-03-07T07:20:49;12.45;;;4.45;;
72125;SDS011;59999;51.676;22.650;2024-03-07T07:23:18;14.52;;;5.18;;
72125;SDS011;59999;51.676;22.650;2024-03-07T07:25:43;14.75;;;5.18;;
72125;SDS011;59999;51.676;22.650;2024-03-07T07:28:10;16.80;;;6.57;;
72125;SDS011;59999;51.676;22.650;2024-03-07T07:30:36;17.03;;;7.07;;
72125;SDS011;59999;51.676;22.650;2024-03-07T07:33:02;12.98;;;4.28;;
72125;SDS011;59999;51.676;22.650;2024-03-07T07:35:28;14.15;;;4.45;;
72125;SDS011;59999;51.676;22.650;2024-03-07T07:37:54;16.80;;;5.50;;
72125;SDS011;59999;51.676;22.650;2024-03-07T07:40:21;11.03;;;4.37;;
72125;SDS011;59999;51.676;22.650;2024-03-07T07:42:50;14.73;;;5.55;;
72125;SDS011;59999;51.676;22.650;2024-03-07T07:45:18;13.00;;;4.70;;
72125;SDS011;59999;51.676;22.650;2024-03-07T07:47:47;14.05;;;5.40;;
72125;SDS011;59999;51.676;22.650;2024-03-07T07:50:23;14.13;;;4.97;;
72125;SDS011;59999;51.676;22.650;2024-03-07T07:52:50;12.17;;;4.67;;
72125;SDS011;59999;51.676;22.650;2024-03-07T07:55:16;15.25;;;5.00;;
72125;SDS011;59999;51.676;22.650;2024-03-07T07:57:44;14.23;;;5.57;;
72125;SDS011;59999;51.676;22.650;2024-03-07T08:02:50;11.25;;;3.60;;
72125;SDS011;59999;51.676;22.650;2024-03-07T08:05:20;10.37;;;4.33;;
72125;SDS011;59999;51.676;22.650;2024-03-07T08:07:54;15.15;;;5.07;;
72125;SDS011;59999;51.676;22.650;2024-03-07T08:10:23;16.02;;;5.43;;
72125;SDS011;59999;51.676;22.650;2024-03-07T08:12:50;15.63;;;6.03;;
72125;SDS011;59999;51.676;22.650;2024-03-07T08:15:15;14.70;;;4.50;;
72125;SDS011;59999;51.676;22.650;2024-03-07T08:17:42;12.25;;;4.05;;
72125;SDS011;59999;51.676;22.650;2024-03-07T08:20:10;15.40;;;5.38;;
72125;SDS011;59999;51.676;22.650;2024-03-07T08:22:38;12.80;;;5.07;;
72125;SDS011;59999;51.676;22.650;2024-03-07T08:25:07;14.32;;;5.20;;
72125;SDS011;59999;51.676;22.650;2024-03-07T08:27:35;15.23;;;4.70;;
72125;SDS011;59999;51.676;22.650;2024-03-07T08:30:05;14.35;;;4.95;;
72125;SDS011;59999;51.676;22.650;2024-03-07T08:32:41;12.27;;;4.72;;
72125;SDS011;59999;51.676;22.650;2024-03-07T08:35:09;12.70;;;4.25;;
72125;SDS011;59999;51.676;22.650;2024-03-07T08:37:37;13.57;;;4.55;;
72125;SDS011;59999;51.676;22.650;2024-03-07T08:40:03;10.80;;;3.40;;
72125;SDS011;59999;51.676;22.650;2024-03-07T08:42:32;11.38;;;4.22;;
72125;SDS011;59999;51.676;22.650;2024-03-07T08:45:02;12.65;;;5.50;;
72125;SDS011;59999;51.676;22.650;2024-03-07T08:47:32;13.23;;;4.75;;
72125;SDS011;59999;51.676;22.650;2024-03-07T08:49:59;15.23;;;6.38;;
72125;SDS011;59999;51.676;22.650;2024-03-07T08:52:25;15.47;;;4.50;;
72125;SDS011;59999;51.676;22.650;2024-03-07T08:54:52;14.18;;;4.72;;
72125;SDS011;59999;51.676;22.650;2024-03-07T08:57:19;12.82;;;4.00;;
72125;SDS011;59999;51.676;22.650;2024-03-07T08:59:47;13.50;;;4.05;;
72125;SDS011;59999;51.676;22.650;2024-03-07T09:02:13;12.15;;;4.45;;
72125;SDS011;59999;51.676;22.650;2024-03-07T09:04:40;12.90;;;4.50;;
72125;SDS011;59999;51.676;22.650;2024-03-07T09:07:06;12.43;;;4.10;;
72125;SDS011;59999;51.676;22.650;2024-03-07T09:09:33;13.18;;;4.80;;
72125;SDS011;59999;51.676;22.650;2024-03-07T09:12:00;14.23;;;4.53;;
72125;SDS011;59999;51.676;22.650;2024-03-07T09:14:29;10.20;;;3.67;;
72125;SDS011;59999;51.676;22.650;2024-03-07T09:16:55;11.18;;;3.95;;
72125;SDS011;59999;51.676;22.650;2024-03-07T09:19:22;10.40;;;4.05;;
72125;SDS011;59999;51.676;22.650;2024-03-07T09:21:53;12.13;;;4.07;;
72125;SDS011;59999;51.676;22.650;2024-03-07T09:24:19;13.30;;;4.65;;
72125;SDS011;59999;51.676;22.650;2024-03-07T09:26:48;12.30;;;4.23;;
72125;SDS011;59999;51.676;22.650;2024-03-07T09:29:15;12.93;;;4.45;;
72125;SDS011;59999;51.676;22.650;2024-03-07T09:31:45;13.35;;;4.90;;
72125;SDS011;59999;51.676;22.650;2024-03-07T09:34:12;13.43;;;4.65;;
72125;SDS011;59999;51.676;22.650;2024-03-07T09:36:39;16.00;;;4.90;;
72125;SDS011;59999;51.676;22.650;2024-03-07T09:39:07;14.77;;;3.67;;
72125;SDS011;59999;51.676;22.650;2024-03-07T09:41:34;11.07;;;4.10;;
72125;SDS011;59999;51.676;22.650;2024-03-07T09:44:01;11.52;;;4.20;;
72125;SDS011;59999;51.676;22.650;2024-03-07T09:46:28;12.13;;;3.97;;
72125;SDS011;59999;51.676;22.650;2024-03-07T09:48:56;9.55;;;3.70;;
72125;SDS011;59999;51.676;22.650;2024-03-07T09:51:26;11.97;;;3.00;;
72125;SDS011;59999;51.676;22.650;2024-03-07T09:53:53;12.00;;;3.85;;
72125;SDS011;59999;51.676;22.650;2024-03-07T09:56:24;12.73;;;4.07;;
72125;SDS011;59999;51.676;22.650;2024-03-07T09:58:50;9.73;;;3.58;;
72125;SDS011;59999;51.676;22.650;2024-03-07T10:01:19;11.43;;;3.47;;
72125;SDS011;59999;51.676;22.650;2024-03-07T10:03:49;10.33;;;3.03;;
72125;SDS011;59999;51.676;22.650;2024-03-07T10:06:18;10.32;;;4.15;;
72125;SDS011;59999;51.676;22.650;2024-03-07T10:08:46;10.70;;;3.53;;
72125;SDS011;59999;51.676;22.650;2024-03-07T10:11:12;10.52;;;3.78;;
72125;SDS011;59999;51.676;22.650;2024-03-07T10:13:39;9.85;;;3.50;;
72125;SDS011;59999;51.676;22.650;2024-03-07T10:16:07;11.03;;;3.70;;
72125;SDS011;59999;51.676;22.650;2024-03-07T10:18:35;14.73;;;4.38;;
72125;SDS011;59999;51.676;22.650;2024-03-07T10:21:08;10.98;;;4.20;;
72125;SDS011;59999;51.676;22.650;2024-03-07T10:23:33;13.83;;;3.90;;
72125;SDS011;59999;51.676;22.650;2024-03-07T10:26:00;12.52;;;3.95;;
72125;SDS011;59999;51.676;22.650;2024-03-07T10:28:26;10.68;;;3.78;;
72125;SDS011;59999;51.676;22.650;2024-03-07T10:30:53;11.48;;;3.78;;
72125;SDS011;59999;51.676;22.650;2024-03-07T10:33:19;10.90;;;3.33;;
72125;SDS011;59999;51.676;22.650;2024-03-07T10:35:49;11.27;;;3.63;;
72125;SDS011;59999;51.676;22.650;2024-03-07T10:38:14;10.32;;;3.30;;
72125;SDS011;59999;51.676;22.650;2024-03-07T10:40:40;12.23;;;3.43;;
72125;SDS011;59999;51.676;22.650;2024-03-07T10:43:07;10.63;;;3.67;;
72125;SDS011;59999;51.676;22.650;2024-03-07T10:45:37;12.13;;;3.55;;
72125;SDS011;59999;51.676;22.650;2024-03-07T10:48:12;10.07;;;3.70;;
72125;SDS011;59999;51.676;22.650;2024-03-07T11:01:30;11.57;;;4.07;;
72125;SDS011;59999;51.676;22.650;2024-03-07T11:03:59;13.13;;;4.87;;
72125;SDS011;59999;51.676;22.650;2024-03-07T11:06:25;13.32;;;4.90;;
72125;SDS011;59999;51.676;22.650;2024-03-07T11:08:51;10.40;;;3.83;;
72125;SDS011;59999;51.676;22.650;2024-03-07T11:11:18;13.55;;;4.28;;
72125;SDS011;59999;51.676;22.650;2024-03-07T11:13:44;12.70;;;3.93;;
72125;SDS011;59999;51.676;22.650;2024-03-07T11:16:12;12.93;;;4.95;;
72125;SDS011;59999;51.676;22.650;2024-03-07T11:18:40;11.77;;;4.38;;
72125;SDS011;59999;51.676;22.650;2024-03-07T11:21:05;11.48;;;4.60;;
72125;SDS011;59999;51.676;22.650;2024-03-07T11:23:33;12.43;;;4.35;;
72125;SDS011;59999;51.676;22.650;2024-03-07T11:28:37;11.02;;;4.53;;
72125;SDS011;59999;51.676;22.650;2024-03-07T11:31:15;11.77;;;4.82;;
72125;SDS011;59999;51.676;22.650;2024-03-07T11:36:46;12.10;;;4.50;;
72125;SDS011;59999;51.676;22.650;2024-03-07T11:42:09;10.70;;;3.85;;
72125;SDS011;59999;51.676;22.650;2024-03-07T11:44:45;11.57;;;3.72;;
72125;SDS011;59999;51.676;22.650;2024-03-07T11:47:14;10.40;;;3.70;;
72125;SDS011;59999;51.676;22.650;2024-03-07T11:49:41;13.23;;;4.00;;
72125;SDS011;59999;51.676;22.650;2024-03-07T11:52:07;11.27;;;3.08;;
72125;SDS011;59999;51.676;22.650;2024-03-07T11:54:38;9.15;;;3.33;;
72125;SDS011;59999;51.676;22.650;2024-03-07T11:57:12;10.37;;;3.30;;
72125;SDS011;59999;51.676;22.650;2024-03-07T11:59:39;8.73;;;3.30;;
72125;SDS011;59999;51.676;22.650;2024-03-07T12:02:13;10.32;;;2.90;;
72125;SDS011;59999;51.676;22.650;2024-03-07T12:04:44;8.05;;;2.88;;
72125;SDS011;59999;51.676;22.650;2024-03-07T12:07:10;10.43;;;3.25;;
72125;SDS011;59999;51.676;22.650;2024-03-07T12:09:36;12.00;;;4.60;;
72125;SDS011;59999;51.676;22.650;2024-03-07T12:12:04;11.32;;;3.25;;
72125;SDS011;59999;51.676;22.650;2024-03-07T12:14:30;10.45;;;4.03;;
72125;SDS011;59999;51.676;22.650;2024-03-07T12:16:57;10.05;;;3.30;;
72125;SDS011;59999;51.676;22.650;2024-03-07T12:19:23;11.90;;;4.23;;
72125;SDS011;59999;51.676;22.650;2024-03-07T12:21:49;27.25;;;10.55;;
72125;SDS011;59999;51.676;22.650;2024-03-07T12:24:15;11.50;;;3.30;;
72125;SDS011;59999;51.676;22.650;2024-03-07T12:26:41;9.00;;;3.45;;
72125;SDS011;59999;51.676;22.650;2024-03-07T12:29:12;10.32;;;3.20;;
72125;SDS011;59999;51.676;22.650;2024-03-07T12:31:39;11.75;;;4.07;;
72125;SDS011;59999;51.676;22.650;2024-03-07T12:34:05;13.27;;;4.07;;
72125;SDS011;59999;51.676;22.650;2024-03-07T12:36:35;9.65;;;3.20;;
72125;SDS011;59999;51.676;22.650;2024-03-07T12:39:21;13.32;;;4.35;;
72125;SDS011;59999;51.676;22.650;2024-03-07T12:41:50;10.98;;;3.65;;
72125;SDS011;59999;51.676;22.650;2024-03-07T12:44:18;22.55;;;6.43;;
72125;SDS011;59999;51.676;22.650;2024-03-07T12:46:50;10.63;;;3.87;;
72125;SDS011;59999;51.676;22.650;2024-03-07T12:49:24;10.15;;;3.40;;
72125;SDS011;59999;51.676;22.650;2024-03-07T12:51:53;9.32;;;2.80;;
72125;SDS011;59999;51.676;22.650;2024-03-07T12:54:20;9.45;;;2.55;;
72125;SDS011;59999;51.676;22.650;2024-03-07T12:56:47;100.35;;;23.40;;
72125;SDS011;59999;51.676;22.650;2024-03-07T12:59:15;97.27;;;26.27;;
72125;SDS011;59999;51.676;22.650;2024-03-07T13:01:42;12.00;;;3.25;;
72125;SDS011;59999;51.676;22.650;2024-03-07T13:04:13;11.52;;;3.92;;
72125;SDS011;59999;51.676;22.650;2024-03-07T13:06:39;9.57;;;3.17;;
72125;SDS011;59999;51.676;22.650;2024-03-07T13:09:09;11.00;;;3.05;;
72125;SDS011;59999;51.676;22.650;2024-03-07T13:11:38;7.60;;;2.20;;
72125;SDS011;59999;51.676;22.650;2024-03-07T13:14:07;9.05;;;2.55;;
72125;SDS011;59999;51.676;22.650;2024-03-07T13:16:35;7.60;;;2.35;;
72125;SDS011;59999;51.676;22.650;2024-03-07T13:19:01;11.60;;;2.60;;
72125;SDS011;59999;51.676;22.650;2024-03-07T13:21:33;8.77;;;2.47;;
72125;SDS011;59999;51.676;22.650;2024-03-07T13:24:01;9.25;;;2.92;;
72125;SDS011;59999;51.676;22.650;2024-03-07T13:26:27;8.85;;;2.50;;
72125;SDS011;59999;51.676;22.650;2024-03-07T13:28:55;8.68;;;2.72;;
72125;SDS011;59999;51.676;22.650;2024-03-07T13:31:21;10.17;;;2.87;;
72125;SDS011;59999;51.676;22.650;2024-03-07T13:33:48;9.90;;;2.90;;
72125;SDS011;59999;51.676;22.650;2024-03-07T13:36:17;11.15;;;3.42;;
72125;SDS011;59999;51.676;22.650;2024-03-07T13:38:53;10.88;;;2.85;;
72125;SDS011;59999;51.676;22.650;2024-03-07T13:41:21;12.45;;;3.17;;
72125;SDS011;59999;51.676;22.650;2024-03-07T13:43:47;19.63;;;5.00;;
72125;SDS011;59999;51.676;22.650;2024-03-07T13:46:14;8.63;;;3.00;;
72125;SDS011;59999;51.676;22.650;2024-03-07T13:48:43;8.55;;;2.83;;
72125;SDS011;59999;51.676;22.650;2024-03-07T13:51:09;10.63;;;3.40;;
72125;SDS011;59999;51.676;22.650;2024-03-07T13:53:40;9.45;;;3.08;;
72125;SDS011;59999;51.676;22.650;2024-03-07T13:57:00;9.20;;;2.93;;
72125;SDS011;59999;51.676;22.650;2024-03-07T13:59:56;11.40;;;3.97;;
72125;SDS011;59999;51.676;22.650;2024-03-07T14:11:08;12.87;;;4.00;;
72125;SDS011;59999;51.676;22.650;2024-03-07T14:20:01;37.53;;;8.93;;
72125;SDS011;59999;51.676;22.650;2024-03-07T14:31:31;12.48;;;3.92;;
72125;SDS011;59999;51.676;22.650;2024-03-07T14:36:37;10.23;;;3.13;;
72125;SDS011;59999;51.676;22.650;2024-03-07T14:39:06;10.13;;;2.77;;
72125;SDS011;59999;51.676;22.650;2024-03-07T14:41:47;8.00;;;2.72;;
72125;SDS011;59999;51.676;22.650;2024-03-07T14:44:16;9.75;;;3.50;;
72125;SDS011;59999;51.676;22.650;2024-03-07T14:46:43;10.18;;;3.50;;
72125;SDS011;59999;51.676;22.650;2024-03-07T14:49:14;8.65;;;3.10;;
72125;SDS011;59999;51.676;22.650;2024-03-07T14:51:42;9.93;;;2.77;;
72125;SDS011;59999;51.676;22.650;2024-03-07T14:54:08;11.20;;;3.17;;
72125;SDS011;59999;51.676;22.650;2024-03-07T14:56:35;12.45;;;4.28;;
72125;SDS011;59999;51.676;22.650;2024-03-07T14:59:01;8.87;;;3.37;;
72125;SDS011;59999;51.676;22.650;2024-03-07T15:01:28;11.90;;;3.58;;
72125;SDS011;59999;51.676;22.650;2024-03-07T15:04:02;11.47;;;4.10;;
72125;SDS011;59999;51.676;22.650;2024-03-07T15:06:32;11.25;;;3.53;;
72125;SDS011;59999;51.676;22.650;2024-03-07T15:08:59;11.38;;;3.17;;
72125;SDS011;59999;51.676;22.650;2024-03-07T15:11:31;9.60;;;2.80;;
72125;SDS011;59999;51.676;22.650;2024-03-07T15:14:00;10.85;;;3.70;;